Time;durP1;ratioP1;P1;durP2;ratioP2;P2;SDS_P1;SDS_P2;PMS_P1;PMS_P2;Temp;Humidity;BMP_temperature;BMP_pressure;BME280_temperature;BME280_humidity;BME280_pressure;Samples;Min_cycle;Max_cycle;Signal;HPM_P1;HPM_P2
2021/07/09 14:04:53;;;;;;;2.17;1.05;;;;;;;31.63;38.86;99418.63;1799931;78;22770;-70
2021/07/09 14:07:22;;;;;;;7.12;1.52;;;;;;;31.63;38.57;99417.27;1769895;80;20971;-68
2021/07/09 14:09:51;;;;;;;3.92;1.27;;;;;;;31.60;38.84;99417.55;1765624;80;21148;-69
2021/07/09 14:12:20;;;;;;;4.08;1.40;;;;;;;31.54;40.42;99416.73;1764742;80;21661;-68
2021/07/09 14:14:48;;;;;;;13.98;2.17;;;;;;;31.47;40.67;99420.50;1765878;80;20953;-68
2021/07/09 14:17:17;;;;;;;26.30;2.40;;;;;;;31.43;39.43;99412.22;1769447;80;20992;-66
2021/07/09 14:19:45;;;;;;;3.30;1.40;;;;;;;31.39;39.83;99413.99;1771092;80;20877;-68
2021/07/09 14:22:16;;;;;;;4.55;1.40;;;;;;;31.31;39.80;99418.25;1772408;80;21167;-69
2021/07/09 14:24:45;;;;;;;2.87;1.55;;;;;;;31.23;40.84;99416.70;1767321;80;21617;-70
2021/07/09 14:27:14;;;;;;;14.80;1.85;;;;;;;31.23;40.97;99415.34;1768939;80;20979;-70
2021/07/09 14:29:43;;;;;;;4.75;1.72;;;;;;;31.35;41.34;99413.89;1769127;81;20925;-70
2021/07/09 14:32:11;;;;;;;3.67;1.42;;;;;;;31.45;41.99;99410.72;1766049;80;20905;-68
2021/07/09 14:34:39;;;;;;;107.65;13.05;;;;;;;31.55;41.77;99407.55;1755775;80;21472;-71
2021/07/09 14:37:07;;;;;;;90.00;8.20;;;;;;;31.68;40.73;99404.59;1741699;82;20866;-69
2021/07/09 14:39:35;;;;;;;4.58;1.60;;;;;;;31.72;39.40;99402.02;1758521;80;20907;-69
2021/07/09 14:42:04;;;;;;;4.80;1.60;;;;;;;31.73;38.48;99395.06;1769618;80;20950;-69
2021/07/09 14:44:33;;;;;;;14.38;2.08;;;;;;;31.75;38.71;99397.65;1766433;80;20926;-68
2021/07/09 14:47:01;;;;;;;16.82;2.45;;;;;;;31.70;38.49;99396.70;1770026;80;21123;-69
2021/07/09 14:49:28;;;;;;;12.65;2.50;;;;;;;31.60;38.38;99395.23;1765834;80;21563;-69
2021/07/09 14:51:57;;;;;;;8.08;1.77;;;;;;;31.57;38.10;99390.55;1771797;80;21032;-69
2021/07/09 14:54:25;;;;;;;5.72;1.62;;;;;;;31.54;39.51;99390.32;1772753;81;21077;-69
2021/07/09 14:56:52;;;;;;;39.95;4.65;;;;;;;31.51;40.96;99391.95;1774122;80;21025;-69
2021/07/09 14:59:21;;;;;;;5.95;1.72;;;;;;;31.47;41.68;99382.33;1774063;81;21217;-69
2021/07/09 15:01:48;;;;;;;3.52;1.40;;;;;;;31.40;39.68;99383.87;1773897;80;21545;-69
2021/07/09 15:04:19;;;;;;;28.02;3.55;;;;;;;31.37;40.07;99381.91;1765449;80;21435;-69
2021/07/09 15:06:46;;;;;;;2.27;1.32;;;;;;;31.34;40.39;99384.41;1760170;81;20959;-69
2021/07/09 15:09:14;;;;;;;6.05;1.45;;;;;;;31.21;41.54;99377.78;1756289;80;20973;-69
2021/07/09 15:11:42;;;;;;;8.73;1.60;;;;;;;31.09;40.34;99382.91;1758005;80;21080;-69
2021/07/09 15:14:10;;;;;;;8.78;2.47;;;;;;;30.97;40.24;99385.34;1754625;80;21115;-69
2021/07/09 15:16:38;;;;;;;2.87;1.45;;;;;;;30.89;39.79;99387.87;1757735;80;20971;-68
2021/07/09 15:19:06;;;;;;;5.15;1.40;;;;;;;30.82;39.50;99383.95;1753247;81;20877;-68
2021/07/09 15:21:34;;;;;;;4.22;1.62;;;;;;;30.82;39.99;99389.39;1758581;80;21510;-68
2021/07/09 15:24:02;;;;;;;4.65;1.65;;;;;;;30.84;39.87;99384.18;1757108;80;21413;-68
2021/07/09 15:26:32;;;;;;;6.33;1.80;;;;;;;30.92;40.14;99375.34;1757969;80;21539;-69
2021/07/09 15:29:00;;;;;;;4.83;1.55;;;;;;;30.96;39.96;99380.39;1757075;80;20976;-69
2021/07/09 15:31:30;;;;;;;3.12;1.55;;;;;;;30.97;40.24;99380.75;1757800;80;21058;-69
2021/07/09 15:33:58;;;;;;;9.70;1.92;;;;;;;30.92;41.85;99378.93;1753050;80;21110;-69
2021/07/09 15:36:26;;;;;;;20.30;2.33;;;;;;;30.79;41.14;99375.54;1756341;80;21132;-69
2021/07/09 15:38:54;;;;;;;9.28;1.80;;;;;;;30.73;40.89;99373.31;1755740;81;20960;-69
2021/07/09 15:41:23;;;;;;;6.55;1.80;;;;;;;30.73;40.84;99382.84;1757085;81;21251;-67
2021/07/09 15:43:52;;;;;;;47.70;2.60;;;;;;;30.74;42.48;99375.04;1756421;80;21494;-68
2021/07/09 15:46:20;;;;;;;47.60;5.17;;;;;;;30.76;44.01;99375.80;1750067;80;21218;-67
2021/07/09 15:48:47;;;;;;;9.18;1.92;;;;;;;30.70;42.43;99374.94;1756779;80;21141;-68
2021/07/09 15:51:16;;;;;;;17.02;2.05;;;;;;;30.61;42.89;99374.36;1752354;80;20987;-68
2021/07/09 15:53:44;;;;;;;10.98;2.08;;;;;;;30.53;44.64;99375.48;1755403;80;21454;-68
2021/07/09 15:56:12;;;;;;;5.20;1.70;;;;;;;30.48;47.09;99375.87;1758199;80;20964;-68
2021/07/09 15:58:41;;;;;;;84.80;7.65;;;;;;;30.47;48.62;99380.95;1756045;80;20933;-69
2021/07/09 16:01:09;;;;;;;8.80;2.22;;;;;;;30.49;49.20;99387.12;1757161;80;21128;-68
2021/07/09 16:03:38;;;;;;;2.60;1.30;;;;;;;30.46;49.39;99381.08;1753614;80;21406;-68
2021/07/09 16:06:06;;;;;;;4.22;1.62;;;;;;;30.42;49.91;99385.91;1757666;80;21035;-68
2021/07/09 16:08:34;;;;;;;14.38;2.65;;;;;;;30.42;50.14;99382.33;1750480;81;21076;-69
2021/07/09 16:11:03;;;;;;;3.70;1.52;;;;;;;30.28;48.04;99382.99;1755344;80;21058;-68
2021/07/09 16:13:33;;;;;;;5.50;1.80;;;;;;;30.09;46.61;99389.57;1758749;80;21054;-69
2021/07/09 16:16:01;;;;;;;55.03;6.12;;;;;;;29.95;46.55;99392.53;1756511;80;20890;-65
2021/07/09 16:18:29;;;;;;;10.28;1.98;;;;;;;29.85;47.65;99391.56;1750837;80;20878;-66
2021/07/09 16:20:56;;;;;;;74.00;6.72;;;;;;;29.74;48.62;99389.19;1750881;80;20906;-66
2021/07/09 16:23:24;;;;;;;19.35;2.47;;;;;;;29.70;49.11;99386.84;1753461;80;21482;-69
2021/07/09 16:25:53;;;;;;;42.23;5.67;;;;;;;29.65;49.91;99389.07;1751208;81;21143;-69
2021/07/09 16:28:23;;;;;;;7.35;2.00;;;;;;;29.62;50.88;99392.04;1763085;81;20861;-68
2021/07/09 16:30:51;;;;;;;40.90;4.58;;;;;;;29.60;52.25;99389.94;1763326;81;20995;-68
2021/07/09 16:33:19;;;;;;;211.65;24.67;;;;;;;29.57;52.13;99387.47;1763265;81;20881;-68
2021/07/09 16:35:47;;;;;;;27.93;4.40;;;;;;;29.56;53.06;99385.73;1763336;81;20924;-67
2021/07/09 16:38:15;;;;;;;20.32;3.27;;;;;;;29.56;54.40;99381.17;1763217;81;21152;-68
2021/07/09 16:40:44;;;;;;;8.73;1.90;;;;;;;29.58;57.11;99378.33;1763153;81;21463;-68
2021/07/09 16:43:11;;;;;;;18.60;2.67;;;;;;;29.55;57.16;99377.22;1763634;81;21416;-67
2021/07/09 16:45:41;;;;;;;19.67;2.58;;;;;;;29.45;55.77;99373.02;1763242;81;20944;-68
2021/07/09 16:48:09;;;;;;;9.33;2.42;;;;;;;29.38;57.57;99373.97;1763279;81;20956;-68
2021/07/09 16:50:37;;;;;;;8.48;2.00;;;;;;;29.38;61.27;99374.46;1763223;81;23172;-69
2021/07/09 16:53:05;;;;;;;28.35;3.47;;;;;;;29.39;70.48;99372.12;1763481;81;21492;-69
2021/07/09 16:55:34;;;;;;;13.90;2.60;;;;;;;29.38;74.69;99372.61;1763150;81;20980;-69
2021/07/09 16:58:03;;;;;;;8.00;2.15;;;;;;;29.36;77.57;99373.72;1763241;81;20924;-69
2021/07/09 17:00:31;;;;;;;9.95;2.08;;;;;;;29.32;79.66;99373.06;1763262;81;20892;-68
2021/07/09 17:03:00;;;;;;;8.70;2.00;;;;;;;29.27;82.72;99373.93;1763451;81;21137;-69
2021/07/09 17:05:28;;;;;;;82.15;7.03;;;;;;;29.23;84.53;99372.44;1763188;81;20896;-69
2021/07/09 17:07:56;;;;;;;177.45;15.03;;;;;;;29.18;84.85;99371.94;1765071;81;20912;-69
2021/07/09 17:10:24;;;;;;;35.45;4.40;;;;;;;29.10;86.60;99373.05;1765352;81;20940;-68
2021/07/09 17:12:52;;;;;;;104.92;10.68;;;;;;;29.02;87.48;99369.58;1765360;81;21426;-69
2021/07/09 17:15:20;;;;;;;112.45;11.08;;;;;;;28.94;88.17;99367.09;1765352;81;21142;-69
2021/07/09 17:17:47;;;;;;;209.20;21.77;;;;;;;28.83;89.25;99363.79;1765335;81;20991;-68
2021/07/09 17:20:15;;;;;;;111.17;11.05;;;;;;;28.74;90.10;99358.59;1765441;81;21483;-69
2021/07/09 17:22:45;;;;;;;137.03;11.78;;;;;;;28.66;90.71;99366.45;1765578;81;20897;-68
2021/07/09 17:25:14;;;;;;;50.23;6.17;;;;;;;28.56;92.48;99362.72;1765614;81;20885;-69
2021/07/09 17:27:43;;;;;;;57.75;5.42;;;;;;;28.46;93.47;99361.70;1765277;81;21168;-68
2021/07/09 17:30:14;;;;;;;16.50;2.98;;;;;;;28.35;93.33;99362.48;1765366;81;21551;-68
2021/07/09 17:32:42;;;;;;;146.30;13.95;;;;;;;28.25;95.49;99364.65;1765695;81;20961;-66
2021/07/09 17:35:11;;;;;;;114.82;11.73;;;;;;;28.14;97.16;99361.36;1765361;81;21693;-68
2021/07/09 17:37:38;;;;;;;136.22;28.25;;;;;;;28.01;97.66;99362.77;1765441;81;20951;-68
2021/07/09 17:40:08;;;;;;;165.50;34.50;;;;;;;27.89;98.48;99361.80;1765241;81;21549;-68
2021/07/09 17:42:35;;;;;;;72.27;16.85;;;;;;;27.79;99.76;99358.52;1765630;81;20909;-68
2021/07/09 17:45:04;;;;;;;51.98;9.63;;;;;;;27.68;99.81;99363.38;1765323;81;21534;-68
2021/07/09 17:47:33;;;;;;;21.80;9.78;;;;;;;27.57;100.00;99356.00;1765616;81;20983;-68
2021/07/09 17:50:01;;;;;;;116.08;23.12;;;;;;;27.47;100.00;99352.23;1764702;81;20981;-67
2021/07/09 17:52:29;;;;;;;70.15;31.37;;;;;;;27.37;100.00;99351.13;1765408;81;21551;-68
2021/07/09 17:54:57;;;;;;;82.22;24.37;;;;;;;27.28;100.00;99351.79;1765434;81;21440;-68
2021/07/09 17:57:25;;;;;;;79.00;12.75;;;;;;;27.17;100.00;99351.69;1765343;81;20908;-68
2021/07/09 17:59:52;;;;;;;31.85;9.33;;;;;;;27.09;100.00;99344.11;1765455;81;21002;-68
2021/07/09 18:02:20;;;;;;;137.30;17.73;;;;;;;27.01;100.00;99344.27;1765272;81;20904;-64
2021/07/09 18:04:48;;;;;;;25.68;11.48;;;;;;;26.90;100.00;99343.13;1764853;81;21089;-65
2021/07/09 18:07:17;;;;;;;19.52;14.80;;;;;;;26.82;100.00;99344.63;1761973;81;20948;-66
2021/07/09 18:09:48;;;;;;;19.20;12.35;;;;;;;26.72;100.00;99344.41;1745289;81;21538;-66
2021/07/09 18:12:20;;;;;;;50.05;22.90;;;;;;;26.64;100.00;99348.13;1759980;81;21523;-66
2021/07/09 18:14:52;;;;;;;88.78;13.80;;;;;;;26.54;100.00;99347.90;1760016;80;20893;-66
2021/07/09 18:17:21;;;;;;;207.03;20.88;;;;;;;26.47;100.00;99352.45;1760076;80;20944;-68
2021/07/09 18:19:49;;;;;;;167.32;16.07;;;;;;;26.37;100.00;99352.20;1759912;81;21413;-68
2021/07/09 18:22:18;;;;;;;136.00;12.50;;;;;;;26.28;100.00;99357.72;1759958;80;20964;-68
2021/07/09 18:24:46;;;;;;;55.63;6.65;;;;;;;26.21;100.00;99362.29;1759837;81;20984;-67
2021/07/09 18:27:15;;;;;;;32.83;5.33;;;;;;;26.12;100.00;99362.42;1759842;81;21049;-68
2021/07/09 18:29:43;;;;;;;33.55;6.08;;;;;;;26.04;100.00;99359.36;1759959;81;21100;-65
2021/07/09 18:32:10;;;;;;;14.23;3.83;;;;;;;25.96;100.00;99362.53;1759862;80;20865;-67
2021/07/09 18:34:38;;;;;;;15.85;4.40;;;;;;;25.86;100.00;99351.95;1760013;80;20925;-68
2021/07/09 18:37:07;;;;;;;20.23;5.33;;;;;;;25.79;100.00;99355.16;1759927;81;21470;-67
2021/07/09 18:39:35;;;;;;;34.43;5.00;;;;;;;25.71;100.00;99352.95;1759990;81;20889;-66
2021/07/09 18:42:04;;;;;;;20.45;4.15;;;;;;;25.64;100.00;99355.15;1751147;81;21161;-67
2021/07/09 18:44:33;;;;;;;11.20;3.95;;;;;;;25.54;100.00;99358.06;1741071;81;21067;-69
2021/07/09 18:47:03;;;;;;;15.65;4.53;;;;;;;25.48;100.00;99353.02;1743069;81;20880;-63
2021/07/09 18:49:31;;;;;;;25.12;5.00;;;;;;;25.39;100.00;99354.47;1729874;83;21407;-63
2021/07/09 18:51:59;;;;;;;29.65;5.30;;;;;;;25.31;100.00;99355.44;1729946;83;20886;-63
2021/07/09 18:54:27;;;;;;;17.77;4.45;;;;;;;25.23;100.00;99352.84;1729918;82;21172;-68
2021/07/09 18:56:57;;;;;;;16.85;5.05;;;;;;;25.15;100.00;99357.86;1729488;82;20935;-68
2021/07/09 18:59:25;;;;;;;12.53;3.77;;;;;;;25.06;100.00;99360.13;1729930;82;20940;-68
2021/07/09 19:01:54;;;;;;;13.98;4.58;;;;;;;25.00;100.00;99350.20;1682877;84;20877;-68
2021/07/09 19:04:24;;;;;;;14.93;4.25;;;;;;;24.91;100.00;99347.55;1729825;83;21033;-68
2021/07/09 19:06:53;;;;;;;10.72;3.70;;;;;;;24.86;100.00;99339.36;1729928;82;21499;-68
2021/07/09 19:09:22;;;;;;;15.90;5.47;;;;;;;24.80;100.00;99341.47;1729870;82;21031;-68
2021/07/09 19:11:52;;;;;;;47.35;6.60;;;;;;;24.73;100.00;99341.94;1730119;82;21129;-68
2021/07/09 19:14:24;;;;;;;24.95;5.30;;;;;;;24.67;100.00;99342.31;1734331;81;21023;-69
2021/07/09 19:16:55;;;;;;;18.15;4.03;;;;;;;24.60;100.00;99340.95;1745634;80;21558;-69
2021/07/09 19:19:30;;;;;;;14.47;4.70;;;;;;;24.54;100.00;99350.25;1741545;80;21997;-69
2021/07/09 19:21:58;;;;;;;17.80;4.55;;;;;;;24.46;100.00;99352.05;1760061;81;21511;-68
2021/07/09 19:24:26;;;;;;;24.92;4.80;;;;;;;24.38;100.00;99341.34;1758806;80;21079;-69
2021/07/09 19:26:53;;;;;;;13.40;3.90;;;;;;;24.31;100.00;99346.23;1747442;81;21094;-65
2021/07/09 19:29:21;;;;;;;17.75;4.45;;;;;;;24.26;100.00;99346.95;1729376;83;21030;-65
2021/07/09 19:31:48;;;;;;;12.55;4.47;;;;;;;24.21;100.00;99341.44;1729983;82;21447;-67
2021/07/09 19:34:16;;;;;;;9.63;3.52;;;;;;;24.13;100.00;99346.80;1729725;83;20983;-67
2021/07/09 19:36:44;;;;;;;39.18;5.90;;;;;;;24.07;100.00;99340.87;1729886;83;20983;-67
2021/07/09 19:39:11;;;;;;;48.75;6.00;;;;;;;24.03;100.00;99348.74;1744333;81;20948;-66
2021/07/09 19:41:40;;;;;;;38.38;6.17;;;;;;;23.96;100.00;99337.92;1732376;81;21420;-68
2021/07/09 19:44:08;;;;;;;17.48;4.20;;;;;;;23.88;100.00;99343.77;1730085;82;21140;-68
2021/07/09 19:46:36;;;;;;;22.37;5.15;;;;;;;23.82;100.00;99342.28;1729854;82;20924;-68
2021/07/09 19:49:04;;;;;;;23.10;5.00;;;;;;;23.77;100.00;99348.41;1734398;81;21446;-66
2021/07/09 19:51:32;;;;;;;27.60;4.30;;;;;;;23.71;100.00;99354.16;1729947;82;21436;-68
2021/07/09 19:54:00;;;;;;;11.78;4.85;;;;;;;23.63;100.00;99343.39;1730186;83;20901;-68
2021/07/09 19:56:28;;;;;;;14.20;4.58;;;;;;;23.57;100.00;99347.30;1729774;83;21199;-67
2021/07/09 19:58:56;;;;;;;12.15;6.20;;;;;;;23.53;100.00;99345.22;1734320;81;21609;-64
2021/07/09 20:01:24;;;;;;;21.57;8.20;;;;;;;23.48;100.00;99342.39;1738235;81;21387;-67
2021/07/09 20:03:53;;;;;;;68.22;11.80;;;;;;;23.43;100.00;99339.95;1729918;82;21479;-68
2021/07/09 20:06:20;;;;;;;26.70;11.50;;;;;;;23.37;100.00;99335.39;1729798;82;20932;-70
2021/07/09 20:08:50;;;;;;;26.50;13.85;;;;;;;23.31;100.00;99337.95;1732318;82;21400;-69
2021/07/09 20:11:20;;;;;;;42.95;18.32;;;;;;;23.27;100.00;99342.23;1707899;82;20988;-68
2021/07/09 20:13:48;;;;;;;37.67;14.95;;;;;;;23.21;100.00;99342.09;1732818;82;20980;-68
2021/07/09 20:16:18;;;;;;;38.20;13.25;;;;;;;23.15;100.00;99341.92;1734793;80;21462;-69
2021/07/09 20:18:47;;;;;;;29.00;11.35;;;;;;;23.12;100.00;99342.56;1759020;80;21506;-69
2021/07/09 20:21:15;;;;;;;25.90;12.50;;;;;;;23.07;100.00;99343.30;1758391;80;21111;-68
2021/07/09 20:23:45;;;;;;;25.10;9.25;;;;;;;23.03;100.00;99347.97;1756430;80;21528;-68
2021/07/09 20:26:14;;;;;;;34.85;12.65;;;;;;;22.99;100.00;99351.78;1754954;80;21028;-69
2021/07/09 20:28:42;;;;;;;25.80;12.60;;;;;;;22.97;100.00;99350.98;1752961;81;20953;-71
2021/07/09 20:31:10;;;;;;;24.05;13.43;;;;;;;22.93;100.00;99351.63;1754679;81;21047;-71
2021/07/09 20:33:39;;;;;;;25.90;12.78;;;;;;;22.93;100.00;99357.01;1759615;80;20953;-70
2021/07/09 20:36:10;;;;;;;22.70;10.78;;;;;;;22.91;100.00;99358.05;1757458;81;20996;-70
2021/07/09 20:38:40;;;;;;;17.87;9.10;;;;;;;22.88;100.00;99359.55;1755117;80;20996;-71
2021/07/09 20:41:10;;;;;;;16.37;8.38;;;;;;;22.86;100.00;99360.11;1760492;80;20948;-72
2021/07/09 20:43:37;;;;;;;14.87;7.40;;;;;;;22.83;100.00;99365.65;1758039;80;21006;-70
2021/07/09 20:46:06;;;;;;;13.75;7.22;;;;;;;22.80;100.00;99366.68;1757688;80;21557;-71
2021/07/09 20:48:36;;;;;;;13.20;6.45;;;;;;;22.77;100.00;99357.88;1754801;80;20933;-68
2021/07/09 20:51:04;;;;;;;9.10;6.03;;;;;;;22.74;100.00;99358.03;1760052;80;20985;-70
2021/07/09 20:53:33;;;;;;;15.15;5.60;;;;;;;22.70;100.00;99353.73;1757508;80;21072;-70
2021/07/09 20:56:01;;;;;;;16.35;5.75;;;;;;;22.68;100.00;99356.50;1756291;80;20976;-71
2021/07/09 20:58:31;;;;;;;10.50;5.85;;;;;;;22.66;100.00;99357.53;1760567;80;21854;-71
2021/07/09 21:00:59;;;;;;;9.75;5.15;;;;;;;22.63;100.00;99354.53;1757366;80;20920;-70
2021/07/09 21:03:28;;;;;;;11.63;4.87;;;;;;;22.58;100.00;99356.59;1749658;80;20943;-71
2021/07/09 21:05:57;;;;;;;9.45;5.87;;;;;;;22.54;100.00;99353.19;1746119;80;21016;-71
2021/07/09 21:08:26;;;;;;;10.10;5.53;;;;;;;22.52;100.00;99362.28;1754743;80;21004;-70
2021/07/09 21:10:56;;;;;;;12.47;6.05;;;;;;;22.48;100.00;99356.20;1756118;80;21189;-71
2021/07/09 21:13:32;;;;;;;13.45;4.92;;;;;;;22.46;100.00;99367.50;1756695;80;20943;-71
2021/07/09 21:16:03;;;;;;;7.83;4.83;;;;;;;22.40;100.00;99359.75;1757041;80;21428;-69
2021/07/09 21:18:31;;;;;;;12.07;5.25;;;;;;;22.35;100.00;99355.08;1756290;80;21527;-69
2021/07/09 21:21:01;;;;;;;9.25;5.62;;;;;;;22.32;100.00;99361.95;1757131;80;20882;-69
2021/07/09 21:23:29;;;;;;;9.00;5.80;;;;;;;22.28;100.00;99365.27;1747482;80;21889;-69
2021/07/09 21:25:58;;;;;;;9.95;5.75;;;;;;;22.25;100.00;99360.05;1754540;80;21067;-70
2021/07/09 21:28:27;;;;;;;21.65;6.50;;;;;;;22.21;100.00;99363.81;1753883;80;21484;-71
2021/07/09 21:30:57;;;;;;;11.43;6.70;;;;;;;22.19;100.00;99363.49;1758648;81;21483;-69
2021/07/09 21:33:25;;;;;;;11.12;7.47;;;;;;;22.15;100.00;99359.22;1759883;80;20944;-68
2021/07/09 21:35:54;;;;;;;10.93;6.70;;;;;;;22.10;100.00;99367.98;1759878;80;21511;-69
2021/07/09 21:38:23;;;;;;;9.50;6.47;;;;;;;22.08;100.00;99368.53;1759821;80;20949;-68
2021/07/09 21:40:52;;;;;;;11.73;6.20;;;;;;;22.05;100.00;99368.20;1759703;81;21475;-68
2021/07/09 21:43:21;;;;;;;17.55;7.22;;;;;;;22.04;100.00;99367.81;1759649;81;20905;-68
2021/07/09 21:45:52;;;;;;;14.47;7.40;;;;;;;22.03;100.00;99358.45;1759675;80;21488;-69
2021/07/09 21:48:21;;;;;;;18.37;6.90;;;;;;;22.01;100.00;99365.25;1760149;81;21102;-68
2021/07/09 21:50:52;;;;;;;12.60;6.42;;;;;;;21.99;100.00;99361.29;1759803;81;21507;-68
2021/07/09 21:53:21;;;;;;;11.22;6.90;;;;;;;21.95;100.00;99362.39;1760096;81;21040;-69
2021/07/09 21:55:49;;;;;;;11.50;6.70;;;;;;;21.94;100.00;99362.47;1759892;80;20992;-69
2021/07/09 21:58:17;;;;;;;18.70;6.55;;;;;;;21.94;100.00;99366.49;1760240;80;20888;-69
2021/07/09 22:00:46;;;;;;;10.15;6.40;;;;;;;21.92;100.00;99369.25;1759977;80;21138;-68
2021/07/09 22:03:15;;;;;;;12.05;6.28;;;;;;;21.89;100.00;99368.06;1760098;80;20889;-68
2021/07/09 22:05:43;;;;;;;10.58;6.70;;;;;;;21.83;100.00;99359.44;1765588;80;21056;-68
2021/07/09 22:08:12;;;;;;;9.55;6.10;;;;;;;21.79;100.00;99355.16;1761617;81;21502;-68
2021/07/09 22:10:43;;;;;;;9.80;6.35;;;;;;;21.74;100.00;99369.25;1765343;81;21471;-68
2021/07/09 22:13:12;;;;;;;12.63;6.42;;;;;;;21.69;100.00;99361.41;1765667;81;21127;-68
2021/07/09 22:15:40;;;;;;;12.30;6.72;;;;;;;21.66;100.00;99358.88;1762705;81;20972;-68
2021/07/09 22:18:12;;;;;;;10.78;7.37;;;;;;;21.63;100.00;99363.05;1765338;81;21502;-68
2021/07/09 22:20:42;;;;;;;12.00;7.00;;;;;;;21.62;100.00;99362.65;1765641;81;21031;-69
2021/07/09 22:23:12;;;;;;;8.88;6.17;;;;;;;21.62;100.00;99365.34;1765645;81;20983;-69
2021/07/09 22:25:40;;;;;;;10.45;5.97;;;;;;;21.59;100.00;99360.11;1765282;81;21867;-69
2021/07/09 22:28:09;;;;;;;12.63;6.12;;;;;;;21.55;100.00;99367.44;1765716;81;20976;-69
2021/07/09 22:30:39;;;;;;;12.60;6.35;;;;;;;21.52;100.00;99359.53;1765361;81;20992;-69
2021/07/09 22:33:11;;;;;;;13.32;6.70;;;;;;;21.51;100.00;99358.27;1765602;81;21372;-69
2021/07/09 22:35:41;;;;;;;13.53;6.28;;;;;;;21.51;100.00;99358.27;1765677;81;20960;-69
2021/07/09 22:38:11;;;;;;;10.25;6.05;;;;;;;21.51;100.00;99360.48;1765461;81;21482;-69
2021/07/09 22:40:42;;;;;;;8.83;6.30;;;;;;;21.50;100.00;99359.20;1765533;81;21889;-69
2021/07/09 22:43:10;;;;;;;11.08;6.55;;;;;;;21.47;100.00;99358.02;1765500;80;20877;-69
2021/07/09 22:45:38;;;;;;;12.55;6.08;;;;;;;21.44;100.00;99364.87;1765392;81;20904;-68
2021/07/09 22:48:07;;;;;;;11.85;6.37;;;;;;;21.37;100.00;99360.26;1765487;81;20967;-67
2021/07/09 22:50:37;;;;;;;10.43;6.45;;;;;;;21.32;100.00;99352.42;1765577;81;21140;-67
